createdAt,value
2022-09-27T00:00:35.987Z,10.05
2022-09-27T00:01:35.961Z,9.97
2022-09-27T00:02:35.927Z,10.02
2022-09-27T00:03:35.810Z,10.01
2022-09-27T00:04:35.806Z,10.04
2022-09-27T00:05:35.705Z,10.09
2022-09-27T00:06:39.920Z,10.01
2022-09-27T00:07:35.590Z,9.99
2022-09-27T00:08:35.540Z,9.99
2022-09-27T00:09:35.487Z,10.01
2022-09-27T00:10:35.475Z,10.02
2022-09-27T00:11:35.389Z,10.01
2022-09-27T00:12:35.303Z,9.99
2022-09-27T00:13:35.270Z,10.04
2022-09-27T00:14:35.199Z,10.04
2022-09-27T00:15:35.189Z,10.07
2022-09-27T00:16:35.189Z,9.99
2022-09-27T00:17:35.051Z,10.02
2022-09-27T00:18:34.988Z,9.97
2022-09-27T00:19:34.938Z,9.97
2022-09-27T00:20:34.879Z,9.83
2022-09-27T00:21:34.879Z,9.98
2022-09-27T00:22:34.781Z,9.92
2022-09-27T00:23:34.750Z,9.98
2022-09-27T00:24:34.651Z,9.97
2022-09-27T00:25:34.607Z,9.98
2022-09-27T00:26:34.539Z,9.94
2022-09-27T00:27:34.527Z,9.87
2022-09-27T00:28:34.431Z,9.97
2022-09-27T00:29:34.390Z,10.01
2022-09-27T00:30:34.336Z,9.94
2022-09-27T00:31:34.269Z,9.92
2022-09-27T00:32:34.210Z,9.94
2022-09-27T00:33:34.194Z,9.97
2022-09-27T00:34:34.090Z,9.94
2022-09-27T00:35:34.035Z,9.86
2022-09-27T00:36:33.997Z,9.97
2022-09-27T00:37:33.912Z,10.04
2022-09-27T00:38:33.858Z,9.94
2022-09-27T00:39:33.850Z,10.01
2022-09-27T00:40:33.803Z,10.07
2022-09-27T00:41:33.719Z,10.01
2022-09-27T00:42:33.660Z,10.04
2022-09-27T00:43:33.600Z,10.02
2022-09-27T00:44:33.680Z,10.05
2022-09-27T00:45:33.494Z,9.99
2022-09-27T00:46:33.536Z,10.09
2022-09-27T00:47:33.385Z,10.05
2022-09-27T00:48:33.310Z,10.09
2022-09-27T00:49:33.307Z,10.05
2022-09-27T00:50:33.224Z,10.09
2022-09-27T00:51:33.168Z,10.09
2022-09-27T00:52:33.106Z,10.02
2022-09-27T00:53:33.057Z,10.09
2022-09-27T00:54:33.038Z,10.02
2022-09-27T00:55:32.956Z,10.13
2022-09-27T00:56:32.892Z,9.95
2022-09-27T00:57:32.829Z,9.95
2022-09-27T00:58:32.813Z,9.99
2022-09-27T00:59:32.730Z,10.01
2022-09-27T01:00:32.676Z,10.01
2022-09-27T01:01:32.712Z,10.01
2022-09-27T01:02:32.626Z,10.01
2022-09-27T01:03:32.478Z,10.04
2022-09-27T01:04:32.478Z,9.95
2022-09-27T01:05:32.386Z,10.04
2022-09-27T01:06:32.328Z,9.97
2022-09-27T01:07:32.263Z,9.97
2022-09-27T01:08:32.229Z,10.01
2022-09-27T01:09:32.172Z,9.87
2022-09-27T01:10:32.144Z,9.94
2022-09-27T01:11:32.061Z,10.01
2022-09-27T01:12:32.007Z,9.97
2022-09-27T01:13:31.931Z,10.01
2022-09-27T01:14:31.893Z,10.05
2022-09-27T01:15:31.893Z,10.01
2022-09-27T01:16:31.826Z,10.04
2022-09-27T01:17:31.721Z,10.05
2022-09-27T01:18:31.678Z,10.07
2022-09-27T01:19:31.603Z,10.07
2022-09-27T01:20:31.573Z,9.99
2022-09-27T01:21:31.508Z,10.01
2022-09-27T01:22:31.481Z,9.99
2022-09-27T01:23:31.396Z,9.99
2022-09-27T01:24:31.348Z,10.02
2022-09-27T01:25:31.280Z,10.02
2022-09-27T01:26:31.229Z,10.05
2022-09-27T01:27:31.170Z,10.04
2022-09-27T01:28:31.159Z,10.05
2022-09-27T01:29:31.065Z,10.01
2022-09-27T01:30:31.026Z,10.05
2022-09-27T01:31:31.022Z,10.05
2022-09-27T01:32:30.910Z,10.04
2022-09-27T01:33:30.875Z,10.12
2022-09-27T01:34:30.825Z,10.10
2022-09-27T01:35:30.733Z,10.10
2022-09-27T01:36:30.680Z,10.15
2022-09-27T01:37:30.626Z,10.09
2022-09-27T01:38:30.575Z,10.09
2022-09-27T01:39:30.547Z,10.13
2022-09-27T01:40:30.522Z,10.12
2022-09-27T01:41:30.400Z,10.12
2022-09-27T01:42:30.335Z,10.07
2022-09-27T01:43:30.291Z,10.05
2022-09-27T01:44:30.268Z,10.04
2022-09-27T01:45:30.185Z,10.07
2022-09-27T01:46:30.154Z,10.13
2022-09-27T01:47:30.081Z,10.17
2022-09-27T01:48:30.019Z,10.15
2022-09-27T01:49:29.961Z,10.16
2022-09-27T01:50:29.934Z,10.16
2022-09-27T01:51:29.856Z,10.23
2022-09-27T01:52:29.788Z,10.19
2022-09-27T01:53:29.739Z,10.15
2022-09-27T01:54:29.691Z,10.23
2022-09-27T01:55:29.660Z,10.17
2022-09-27T01:56:29.561Z,10.20
2022-09-27T01:57:29.526Z,10.17
2022-09-27T01:58:29.465Z,10.20
2022-09-27T01:59:29.418Z,10.22
2022-09-27T02:00:29.389Z,10.25
2022-09-27T02:01:29.339Z,10.23
2022-09-27T02:02:29.300Z,10.23
2022-09-27T02:03:29.191Z,10.25
2022-09-27T02:04:29.140Z,10.23
2022-09-27T02:05:29.115Z,10.20
2022-09-27T02:06:29.028Z,10.25
2022-09-27T02:07:28.974Z,10.25
2022-09-27T02:08:28.911Z,10.25
2022-09-27T02:09:28.860Z,10.26
2022-09-27T02:10:28.791Z,10.25
2022-09-27T02:11:28.786Z,10.19
2022-09-27T02:12:28.684Z,10.25
2022-09-27T02:13:28.647Z,10.20
2022-09-27T02:14:28.572Z,10.20
2022-09-27T02:15:28.538Z,10.20
2022-09-27T02:16:28.518Z,10.17
2022-09-27T02:17:28.420Z,10.17
2022-09-27T02:18:28.357Z,10.16
2022-09-27T02:19:28.311Z,10.22
2022-09-27T02:20:28.238Z,10.17
2022-09-27T02:21:28.227Z,10.15
2022-09-27T02:22:28.128Z,10.12
2022-09-27T02:23:28.087Z,10.16
2022-09-27T02:24:28.028Z,10.17
2022-09-27T02:25:27.981Z,10.17
2022-09-27T02:26:27.966Z,10.13
2022-09-27T02:27:27.873Z,10.22
2022-09-27T02:28:27.815Z,10.07
2022-09-27T02:29:27.957Z,10.15
2022-09-27T02:30:27.829Z,10.12
2022-09-27T02:31:27.732Z,10.13
2022-09-27T02:32:27.636Z,10.09
2022-09-27T02:33:27.553Z,10.13
2022-09-27T02:34:27.529Z,10.15
2022-09-27T02:35:27.477Z,10.16
2022-09-27T02:36:27.413Z,10.23
2022-09-27T02:37:27.375Z,10.17
2022-09-27T02:38:27.303Z,10.25
2022-09-27T02:39:27.250Z,10.15
2022-09-27T02:40:27.214Z,10.13
2022-09-27T02:41:27.130Z,10.17
2022-09-27T02:42:27.093Z,10.16
2022-09-27T02:43:27.004Z,10.10
2022-09-27T02:44:27.033Z,10.15
2022-09-27T02:45:26.905Z,10.09
2022-09-27T02:46:26.896Z,10.19
2022-09-27T02:47:26.793Z,10.19
2022-09-27T02:48:26.764Z,10.19
2022-09-27T02:49:26.679Z,10.12
2022-09-27T02:50:26.617Z,10.13
2022-09-27T02:51:26.579Z,10.17
2022-09-27T02:52:26.508Z,10.09
2022-09-27T02:53:26.456Z,10.12
2022-09-27T02:54:26.453Z,10.07
2022-09-27T02:55:26.387Z,10.15
2022-09-27T02:56:26.301Z,10.04
2022-09-27T02:57:26.238Z,10.12
2022-09-27T02:58:26.193Z,10.07
2022-09-27T02:59:26.143Z,10.10
2022-09-27T03:00:26.121Z,10.09
2022-09-27T03:01:26.081Z,10.13
2022-09-27T03:02:26.000Z,10.07
2022-09-27T03:03:25.906Z,10.10
2022-09-27T03:04:25.849Z,10.01
2022-09-27T03:05:25.806Z,10.05
2022-09-27T03:06:25.759Z,10.07
2022-09-27T03:07:25.673Z,10.12
2022-09-27T03:08:25.628Z,10.04
2022-09-27T03:09:25.571Z,10.01
2022-09-27T03:10:25.534Z,10.01
2022-09-27T03:11:25.513Z,10.05
2022-09-27T03:12:25.439Z,10.12
2022-09-27T03:13:25.381Z,10.13
2022-09-27T03:14:34.614Z,10.12
2022-09-27T03:15:25.217Z,10.02
2022-09-27T03:16:25.230Z,10.07
2022-09-27T03:17:25.131Z,10.10
2022-09-27T03:18:25.055Z,10.10
2022-09-27T03:19:24.994Z,10.02
2022-09-27T03:20:24.927Z,10.02
2022-09-27T03:21:24.898Z,10.07
2022-09-27T03:22:24.883Z,10.12
2022-09-27T03:23:24.783Z,10.05
2022-09-27T03:24:24.724Z,10.10
2022-09-27T03:25:24.666Z,10.16
2022-09-27T03:26:24.626Z,10.10
2022-09-27T03:27:24.561Z,10.09
2022-09-27T03:28:24.538Z,10.04
2022-09-27T03:29:24.449Z,10.07
2022-09-27T03:30:24.387Z,10.09
2022-09-27T03:31:24.449Z,10.01
2022-09-27T03:32:24.475Z,10.09
2022-09-27T03:33:24.223Z,10.07
2022-09-27T03:34:24.194Z,10.10
2022-09-27T03:35:24.171Z,10.12
2022-09-27T03:36:24.065Z,10.01
2022-09-27T03:37:24.010Z,10.01
2022-09-27T03:38:23.954Z,10.02
2022-09-27T03:39:23.952Z,10.02
2022-09-27T03:40:23.889Z,10.05
2022-09-27T03:41:23.769Z,10.13
2022-09-27T03:42:23.736Z,10.10
2022-09-27T03:43:23.682Z,10.07
2022-09-27T03:44:23.621Z,10.02
2022-09-27T03:45:23.597Z,10.04
2022-09-27T03:46:23.555Z,10.01
2022-09-27T03:47:23.453Z,10.09
2022-09-27T03:48:27.756Z,10.04
2022-09-27T03:49:23.344Z,10.02
2022-09-27T03:50:23.358Z,10.05
2022-09-27T03:51:23.263Z,9.99
2022-09-27T03:52:23.164Z,10.05
2022-09-27T03:53:23.135Z,10.12
2022-09-27T03:54:23.070Z,10.10
2022-09-27T03:55:23.015Z,10.01
2022-09-27T03:56:22.989Z,10.09
2022-09-27T03:57:22.903Z,10.09
2022-09-27T03:58:22.831Z,10.02
2022-09-27T03:59:22.803Z,10.05
2022-09-27T04:00:22.734Z,10.07
2022-09-27T04:01:22.754Z,10.01
2022-09-27T04:02:22.667Z,10.05
2022-09-27T04:03:22.578Z,10.04
2022-09-27T04:04:22.526Z,10.09
2022-09-27T04:05:22.474Z,10.09
2022-09-27T04:06:22.421Z,10.02
2022-09-27T04:07:22.404Z,10.02
2022-09-27T04:08:22.286Z,10.07
2022-09-27T04:09:22.244Z,9.99
2022-09-27T04:10:22.175Z,10.07
2022-09-27T04:11:22.145Z,10.09
2022-09-27T04:12:22.070Z,10.02
2022-09-27T04:13:22.061Z,9.98
2022-09-27T04:14:21.979Z,10.07
2022-09-27T04:15:21.918Z,10.05
2022-09-27T04:16:21.899Z,10.02
2022-09-27T04:17:21.806Z,10.09
2022-09-27T04:18:21.796Z,10.07
2022-09-27T04:19:21.685Z,10.01
2022-09-27T04:20:21.661Z,10.10
2022-09-27T04:21:21.600Z,10.04
2022-09-27T04:22:21.537Z,10.07
2022-09-27T04:23:21.490Z,10.13
2022-09-27T04:24:21.464Z,10.12
2022-09-27T04:25:21.365Z,10.17
2022-09-27T04:26:21.346Z,10.07
2022-09-27T04:27:21.270Z,10.13
2022-09-27T04:28:21.191Z,10.05
2022-09-27T04:29:21.182Z,10.09
2022-09-27T04:30:21.076Z,10.04
2022-09-27T04:31:21.097Z,9.99
2022-09-27T04:32:20.989Z,9.95
2022-09-27T04:33:20.927Z,9.99
2022-09-27T04:34:20.885Z,9.95
2022-09-27T04:35:20.863Z,9.87
2022-09-27T04:36:20.766Z,9.82
2022-09-27T04:37:20.706Z,9.87
2022-09-27T04:38:20.646Z,9.86
2022-09-27T04:39:20.598Z,9.83
2022-09-27T04:40:20.599Z,9.73
2022-09-27T04:41:20.514Z,9.76
2022-09-27T04:42:20.420Z,9.73
2022-09-27T04:43:20.382Z,9.68
2022-09-27T04:44:20.334Z,9.68
2022-09-27T04:45:20.254Z,9.66
2022-09-27T04:46:20.300Z,9.74
2022-09-27T04:47:20.145Z,9.72
2022-09-27T04:48:20.110Z,9.66
2022-09-27T04:49:20.190Z,9.68
2022-09-27T04:50:20.006Z,9.66
2022-09-27T04:51:19.934Z,9.69
2022-09-27T04:52:19.937Z,9.69
2022-09-27T04:53:19.883Z,9.68
2022-09-27T04:54:19.796Z,9.72
2022-09-27T04:55:19.731Z,9.66
2022-09-27T04:56:19.682Z,9.58
2022-09-27T04:57:19.650Z,9.59
2022-09-27T04:58:19.535Z,9.59
2022-09-27T04:59:19.538Z,9.64
2022-09-27T05:00:19.458Z,9.65
2022-09-27T05:01:19.478Z,9.56
2022-09-27T05:02:19.408Z,9.56
2022-09-27T05:03:19.351Z,9.58
2022-09-27T05:04:19.211Z,9.55
2022-09-27T05:05:19.169Z,9.59
2022-09-27T05:06:19.118Z,9.68
2022-09-27T05:07:19.061Z,9.58
2022-09-27T05:08:19.058Z,9.58
2022-09-27T05:09:18.943Z,9.61
2022-09-27T05:10:18.869Z,9.55
2022-09-27T05:11:18.843Z,9.66
2022-09-27T05:12:18.784Z,9.66
2022-09-27T05:13:18.723Z,9.65
2022-09-27T05:14:18.756Z,9.69
2022-09-27T05:15:18.620Z,9.61
2022-09-27T05:16:18.626Z,9.66
2022-09-27T05:17:18.510Z,9.65
2022-09-27T05:18:18.447Z,9.55
2022-09-27T05:19:18.428Z,9.62
2022-09-27T05:20:18.333Z,9.72
2022-09-27T05:21:18.293Z,9.55
2022-09-27T05:22:18.223Z,9.64
2022-09-27T05:23:18.186Z,9.64
2022-09-27T05:24:18.153Z,9.54
2022-09-27T05:25:18.069Z,9.68
2022-09-27T05:26:18.030Z,9.62
2022-09-27T05:27:17.969Z,9.61
2022-09-27T05:28:17.917Z,9.59
2022-09-27T05:29:17.844Z,9.65
2022-09-27T05:30:17.822Z,9.66
2022-09-27T05:31:17.802Z,9.68
2022-09-27T05:32:17.702Z,9.69
2022-09-27T05:33:17.640Z,9.69
2022-09-27T05:34:17.563Z,9.58
2022-09-27T05:35:17.550Z,9.58
2022-09-27T05:36:17.475Z,9.56
2022-09-27T05:37:17.406Z,9.61
2022-09-27T05:38:17.344Z,9.62
2022-09-27T05:39:17.435Z,9.62
2022-09-27T05:40:39.814Z,9.68
2022-09-27T05:41:17.315Z,9.66
2022-09-27T05:42:17.112Z,9.64
2022-09-27T05:43:17.720Z,9.66
2022-09-27T05:44:17.066Z,9.62
2022-09-27T05:45:16.992Z,9.65
2022-09-27T05:46:17.060Z,9.56
2022-09-27T05:47:16.886Z,9.65
2022-09-27T05:48:16.788Z,9.68
2022-09-27T05:49:16.743Z,9.72
2022-09-27T05:50:16.694Z,9.58
2022-09-27T05:51:16.647Z,9.65
2022-09-27T05:52:17.575Z,9.65
2022-09-27T05:53:16.527Z,9.69
2022-09-27T05:54:16.706Z,9.66
2022-09-27T05:55:16.429Z,9.66
2022-09-27T05:56:16.371Z,9.62
2022-09-27T05:57:16.306Z,9.65
2022-09-27T05:58:16.475Z,9.64
2022-09-27T05:59:16.203Z,9.65
2022-09-27T06:00:16.124Z,9.64
2022-09-27T06:01:16.130Z,9.68
2022-09-27T06:02:16.050Z,9.59
2022-09-27T06:03:16.003Z,9.65
2022-09-27T06:04:15.933Z,9.66
2022-09-27T06:05:15.868Z,9.65
2022-09-27T06:06:15.810Z,9.66
2022-09-27T06:07:15.765Z,9.59
2022-09-27T06:08:15.685Z,9.69
2022-09-27T06:09:15.867Z,9.61
2022-09-27T06:10:15.619Z,9.61
2022-09-27T06:11:15.544Z,9.54
2022-09-27T06:12:15.473Z,9.50
2022-09-27T06:13:15.428Z,9.55
2022-09-27T06:14:15.430Z,9.48
2022-09-27T06:15:15.321Z,9.54
2022-09-27T06:16:15.307Z,9.51
2022-09-27T06:17:15.205Z,9.54
2022-09-27T06:18:15.147Z,9.47
2022-09-27T06:19:15.375Z,9.48
2022-09-27T06:20:15.103Z,9.58
2022-09-27T06:21:14.989Z,9.54
2022-09-27T06:22:14.925Z,9.51
2022-09-27T06:23:14.878Z,9.41
2022-09-27T06:24:14.813Z,9.54
2022-09-27T06:25:14.764Z,9.47
2022-09-27T06:26:14.746Z,9.47
2022-09-27T06:27:14.658Z,9.43
2022-09-27T06:28:14.583Z,9.41
2022-09-27T06:29:14.673Z,9.44
2022-09-27T06:30:18.191Z,9.41
2022-09-27T06:31:14.523Z,9.58
2022-09-27T06:32:14.405Z,9.55
2022-09-27T06:33:14.327Z,9.56
2022-09-27T06:34:14.265Z,9.51
2022-09-27T06:35:14.198Z,9.46
2022-09-27T06:36:14.204Z,9.58
2022-09-27T06:37:14.135Z,9.58
2022-09-27T06:38:14.031Z,9.59
2022-09-27T06:39:13.987Z,9.55
2022-09-27T06:40:13.962Z,9.59
2022-09-27T06:41:13.893Z,9.61
2022-09-27T06:42:13.831Z,9.54
2022-09-27T06:43:13.814Z,9.54
2022-09-27T06:44:13.699Z,9.58
2022-09-27T06:45:13.673Z,9.55
2022-09-27T06:46:13.702Z,9.62
2022-09-27T06:47:13.559Z,9.62
2022-09-27T06:48:13.493Z,9.72
2022-09-27T06:49:13.547Z,9.72
2022-09-27T06:50:13.389Z,9.68
2022-09-27T06:51:13.346Z,9.61
2022-09-27T06:52:13.281Z,9.59
2022-09-27T06:53:13.221Z,9.62
2022-09-27T06:54:13.196Z,9.66
2022-09-27T06:55:13.094Z,9.65
2022-09-27T06:56:13.070Z,9.64
2022-09-27T06:57:12.994Z,9.56
2022-09-27T06:58:12.935Z,9.68
2022-09-27T06:59:13.061Z,9.62
2022-09-27T07:00:12.836Z,9.59
2022-09-27T07:01:12.819Z,9.72
2022-09-27T07:02:12.768Z,9.66
2022-09-27T07:03:12.659Z,9.64
2022-09-27T07:04:12.664Z,9.64
2022-09-27T07:05:12.565Z,9.69
2022-09-27T07:06:12.521Z,9.66
2022-09-27T07:07:12.445Z,9.55
2022-09-27T07:08:12.384Z,9.66
2022-09-27T07:09:12.384Z,9.68
2022-09-27T07:10:12.340Z,9.58
2022-09-27T07:11:12.233Z,9.69
2022-09-27T07:12:12.183Z,9.69
2022-09-27T07:13:12.114Z,9.68
2022-09-27T07:14:12.084Z,9.65
2022-09-27T07:15:12.012Z,9.64
2022-09-27T07:16:12.061Z,9.61
2022-09-27T07:17:11.891Z,9.61
2022-09-27T07:18:11.846Z,9.65
2022-09-27T07:19:11.798Z,9.69
2022-09-27T07:20:11.733Z,9.69
2022-09-27T07:21:11.694Z,9.74
2022-09-27T07:22:11.676Z,9.74
2022-09-27T07:23:11.562Z,9.76
2022-09-27T07:24:11.520Z,9.83
2022-09-27T07:25:11.468Z,9.79
2022-09-27T07:26:11.407Z,9.82
2022-09-27T07:27:11.353Z,9.80
2022-09-27T07:28:11.336Z,9.74
2022-09-27T07:29:11.309Z,9.77
2022-09-27T07:30:11.174Z,9.80
2022-09-27T07:31:11.173Z,9.83
2022-09-27T07:32:11.087Z,9.92
2022-09-27T07:33:11.014Z,9.95
2022-09-27T07:34:10.998Z,9.99
2022-09-27T07:35:10.916Z,10.10
2022-09-27T07:36:10.856Z,10.13
2022-09-27T07:37:10.793Z,10.13
2022-09-27T07:38:10.745Z,10.15
2022-09-27T07:39:10.731Z,10.04
2022-09-27T07:40:10.632Z,10.09
2022-09-27T07:41:10.575Z,10.07
2022-09-27T07:42:10.533Z,10.01
2022-09-27T07:43:10.471Z,10.07
2022-09-27T07:44:10.413Z,10.13
2022-09-27T07:45:10.394Z,10.07
2022-09-27T07:46:10.356Z,10.09
2022-09-27T07:47:10.235Z,10.02
2022-09-27T07:48:10.196Z,10.07
2022-09-27T07:49:10.141Z,10.01
2022-09-27T07:50:10.095Z,10.01
2022-09-27T07:51:10.066Z,10.01
2022-09-27T07:52:09.960Z,9.97
2022-09-27T07:53:09.908Z,10.05
2022-09-27T07:54:09.872Z,9.98
2022-09-27T07:55:09.788Z,10.09
2022-09-27T07:56:09.827Z,10.09
2022-09-27T07:57:09.689Z,10.04
2022-09-27T07:58:09.642Z,10.13
2022-09-27T07:59:09.632Z,10.07
2022-09-27T08:00:09.541Z,10.10
2022-09-27T08:01:09.563Z,10.17
2022-09-27T08:02:09.551Z,10.19
2022-09-27T08:03:09.375Z,10.20
2022-09-27T08:04:09.315Z,10.20
2022-09-27T08:05:09.268Z,10.26
2022-09-27T08:06:09.218Z,10.30
2022-09-27T08:07:11.279Z,10.44
2022-09-27T08:08:09.127Z,10.37
2022-09-27T08:09:09.073Z,10.51
2022-09-27T08:10:08.987Z,10.57
2022-09-27T08:11:08.948Z,10.59
2022-09-27T08:12:08.871Z,10.64
2022-09-27T08:13:08.860Z,10.59
2022-09-27T08:14:08.760Z,10.61
2022-09-27T08:15:08.721Z,10.60
2022-09-27T08:16:08.691Z,10.60
2022-09-27T08:17:08.606Z,10.61
2022-09-27T08:18:08.595Z,10.61
2022-09-27T08:19:08.546Z,10.56
2022-09-27T08:20:08.444Z,10.60
2022-09-27T08:21:08.401Z,10.59
2022-09-27T08:22:08.339Z,10.54
2022-09-27T08:23:08.289Z,10.57
2022-09-27T08:24:08.274Z,10.51
2022-09-27T08:25:08.184Z,10.53
2022-09-27T08:26:08.126Z,10.56
2022-09-27T08:27:11.490Z,10.53
2022-09-27T08:28:07.996Z,10.34
2022-09-27T08:29:08.092Z,10.42
2022-09-27T08:30:07.936Z,10.42
2022-09-27T08:31:07.863Z,10.44
2022-09-27T08:32:07.813Z,10.37
2022-09-27T08:33:07.743Z,10.34
2022-09-27T08:34:07.689Z,10.31
2022-09-27T08:35:07.636Z,10.38
2022-09-27T08:36:07.609Z,10.38
2022-09-27T08:37:07.498Z,10.38
2022-09-27T08:38:07.473Z,10.26
2022-09-27T08:39:07.423Z,10.30
2022-09-27T08:40:07.356Z,10.31
2022-09-27T08:41:07.414Z,10.26
2022-09-27T08:42:07.246Z,10.25
2022-09-27T08:43:07.196Z,10.25
2022-09-27T08:44:07.124Z,10.30
2022-09-27T08:45:07.088Z,10.30
2022-09-27T08:46:07.116Z,10.26
2022-09-27T08:47:07.012Z,10.40
2022-09-27T08:48:06.934Z,10.46
2022-09-27T08:49:06.866Z,10.49
2022-09-27T08:50:06.796Z,10.41
2022-09-27T08:51:06.764Z,10.41
2022-09-27T08:52:06.746Z,10.56
2022-09-27T08:53:06.645Z,10.61
2022-09-27T08:54:06.592Z,10.74
2022-09-27T08:55:06.559Z,10.79
2022-09-27T08:56:06.497Z,10.79
2022-09-27T08:57:06.459Z,10.75
2022-09-27T08:58:06.375Z,10.69
2022-09-27T08:59:06.325Z,10.71
2022-09-27T09:00:06.271Z,10.61
2022-09-27T09:01:06.294Z,10.72
2022-09-27T09:02:06.232Z,10.61
2022-09-27T09:03:06.103Z,10.56
2022-09-27T09:04:06.042Z,10.44
2022-09-27T09:05:05.990Z,10.59
2022-09-27T09:06:05.941Z,10.49
2022-09-27T09:07:05.874Z,10.49
2022-09-27T09:08:05.871Z,10.53
2022-09-27T09:09:05.778Z,10.49
2022-09-27T09:10:05.734Z,10.44
2022-09-27T09:11:05.692Z,10.38
2022-09-27T09:12:05.604Z,10.37
2022-09-27T09:13:05.593Z,10.34
2022-09-27T09:14:06.774Z,10.28
2022-09-27T09:15:05.457Z,10.30
2022-09-27T09:16:05.479Z,10.38
2022-09-27T09:17:05.343Z,10.25
2022-09-27T09:18:14.233Z,10.40
2022-09-27T09:19:05.415Z,10.34
2022-09-27T09:20:05.195Z,10.41
2022-09-27T09:21:05.147Z,10.48
2022-09-27T09:22:05.075Z,10.60
2022-09-27T09:23:05.005Z,10.63
2022-09-27T09:24:05.038Z,10.78
2022-09-27T09:25:04.910Z,10.86
2022-09-27T09:26:04.879Z,10.86
2022-09-27T09:27:04.817Z,11.11
2022-09-27T09:28:04.765Z,11.25
2022-09-27T09:29:04.743Z,11.37
2022-09-27T09:30:04.630Z,11.54
2022-09-27T09:31:04.600Z,11.62
2022-09-27T09:32:04.539Z,11.69
2022-09-27T09:33:04.495Z,11.68
2022-09-27T09:34:04.442Z,11.86
2022-09-27T09:35:04.406Z,11.97
2022-09-27T09:36:04.333Z,12.13
2022-09-27T09:37:04.247Z,12.20
2022-09-27T09:38:04.219Z,12.13
2022-09-27T09:39:04.173Z,12.13
2022-09-27T09:40:08.723Z,12.15
2022-09-27T09:41:04.054Z,12.18
2022-09-27T09:42:03.985Z,12.28
2022-09-27T09:43:03.960Z,12.20
2022-09-27T09:44:03.918Z,12.28
2022-09-27T09:45:03.839Z,12.32
2022-09-27T09:46:03.902Z,12.00
2022-09-27T09:47:03.732Z,11.90
2022-09-27T09:48:03.681Z,11.95
2022-09-27T09:49:03.621Z,11.91
2022-09-27T09:50:03.563Z,11.94
2022-09-27T09:51:03.566Z,11.81
2022-09-27T09:52:08.614Z,11.94
2022-09-27T09:53:03.445Z,12.09
2022-09-27T09:54:03.350Z,12.22
2022-09-27T09:55:03.401Z,12.36
2022-09-27T09:56:03.281Z,12.37
2022-09-27T09:57:03.232Z,12.43
2022-09-27T09:58:03.147Z,12.61
2022-09-27T09:59:03.111Z,12.68
2022-09-27T10:00:03.030Z,12.79
2022-09-27T10:01:03.057Z,12.73
2022-09-27T10:02:03.095Z,12.61
2022-09-27T10:03:02.890Z,12.67
2022-09-27T10:04:02.819Z,12.45
2022-09-27T10:05:07.658Z,12.39
2022-09-27T10:06:02.749Z,12.25
2022-09-27T10:07:02.707Z,12.12
2022-09-27T10:08:02.624Z,12.09
2022-09-27T10:09:02.585Z,12.00
2022-09-27T10:10:02.510Z,11.86
2022-09-27T10:11:02.472Z,11.80
2022-09-27T10:12:02.446Z,11.80
2022-09-27T10:13:02.349Z,11.80
2022-09-27T10:14:02.305Z,11.70
2022-09-27T10:15:02.307Z,11.70
2022-09-27T10:16:02.229Z,11.81
2022-09-27T10:17:02.159Z,11.97
2022-09-27T10:18:02.097Z,11.90
2022-09-27T10:19:02.019Z,11.81
2022-09-27T10:20:01.980Z,11.88
2022-09-27T10:21:01.941Z,12.02
2022-09-27T10:22:01.910Z,12.17
2022-09-27T10:23:01.813Z,12.03
2022-09-27T10:24:01.770Z,12.07
2022-09-27T10:25:01.719Z,12.09
2022-09-27T10:26:01.671Z,11.91
2022-09-27T10:27:01.620Z,11.86
2022-09-27T10:28:01.590Z,11.87
2022-09-27T10:29:01.498Z,11.91
2022-09-27T10:30:01.455Z,11.83
2022-09-27T10:31:01.409Z,11.66
2022-09-27T10:32:01.361Z,11.84
2022-09-27T10:33:01.294Z,11.81
2022-09-27T10:34:01.296Z,11.90
2022-09-27T10:35:01.179Z,11.95
2022-09-27T10:36:01.119Z,12.10
2022-09-27T10:37:01.078Z,12.27
2022-09-27T10:38:01.001Z,12.31
2022-09-27T10:39:00.978Z,12.65
2022-09-27T10:40:00.957Z,12.70
2022-09-27T10:41:00.984Z,12.79
2022-09-27T10:42:00.816Z,12.80
2022-09-27T10:43:00.767Z,12.95
2022-09-27T10:44:00.725Z,13.05
2022-09-27T10:45:00.692Z,13.01
2022-09-27T10:46:00.655Z,13.04
2022-09-27T10:47:00.565Z,13.00
2022-09-27T10:48:00.499Z,12.90
2022-09-27T10:49:00.445Z,12.82
2022-09-27T10:50:00.390Z,12.78
2022-09-27T10:51:00.421Z,12.87
2022-09-27T10:52:00.275Z,13.04
2022-09-27T10:53:00.229Z,13.27
2022-09-27T10:54:00.182Z,13.53
2022-09-27T10:55:00.142Z,13.85
2022-09-27T10:56:00.101Z,14.17
2022-09-27T10:57:00.032Z,14.37
2022-09-27T10:57:59.969Z,14.51
2022-09-27T10:58:59.918Z,14.69
2022-09-27T10:59:59.886Z,14.68
2022-09-27T11:00:59.893Z,14.86
2022-09-27T11:01:59.768Z,14.70
2022-09-27T11:02:59.711Z,14.54
2022-09-27T11:03:59.666Z,14.53
2022-09-27T11:04:59.619Z,14.48
2022-09-27T11:05:59.558Z,14.36
2022-09-27T11:06:59.543Z,14.22
2022-09-27T11:07:59.453Z,14.17
2022-09-27T11:08:59.406Z,14.07
2022-09-27T11:09:59.330Z,13.86
2022-09-27T11:10:59.328Z,13.74
2022-09-27T11:11:59.271Z,13.65
2022-09-27T11:12:59.188Z,13.60
2022-09-27T11:13:59.151Z,13.59
2022-09-27T11:14:59.069Z,13.49
2022-09-27T11:15:59.086Z,13.37
2022-09-27T11:16:59.009Z,13.30
2022-09-27T11:17:58.940Z,13.23
2022-09-27T11:18:58.866Z,13.20
2022-09-27T11:19:58.809Z,13.28
2022-09-27T11:20:58.789Z,13.39
2022-09-27T11:21:58.720Z,13.41
2022-09-27T11:22:58.704Z,13.49
2022-09-27T11:23:58.626Z,13.49
2022-09-27T11:24:58.554Z,13.54
2022-09-27T11:25:58.525Z,13.54
2022-09-27T11:26:58.466Z,13.50
2022-09-27T11:27:58.452Z,13.57
2022-09-27T11:28:58.429Z,13.56
2022-09-27T11:29:58.343Z,13.52
2022-09-27T11:30:58.308Z,13.56
2022-09-27T11:31:58.260Z,13.53
2022-09-27T11:32:58.159Z,13.53
2022-09-27T11:33:58.129Z,13.54
2022-09-27T11:34:58.051Z,13.53
2022-09-27T11:35:58.006Z,13.44
2022-09-27T11:36:57.949Z,13.44
2022-09-27T11:37:57.896Z,13.42
2022-09-27T11:39:02.343Z,13.46
2022-09-27T11:39:57.773Z,13.49
2022-09-27T11:40:57.806Z,13.52
2022-09-27T11:41:57.712Z,13.53
2022-09-27T11:42:57.631Z,13.54
2022-09-27T11:43:57.579Z,13.56
2022-09-27T11:45:19.983Z,13.68
2022-09-27T11:46:29.918Z,13.62
2022-09-27T11:46:57.569Z,13.42
2022-09-27T11:47:57.549Z,13.25
2022-09-27T11:48:57.302Z,13.22
2022-09-27T11:49:57.386Z,12.91
2022-09-27T11:50:57.219Z,13.01
2022-09-27T11:51:57.159Z,12.90
2022-09-27T11:52:57.128Z,12.93
2022-09-27T11:53:57.066Z,12.91
2022-09-27T11:54:56.974Z,12.98
2022-09-27T11:55:56.978Z,12.72
2022-09-27T11:56:56.901Z,12.61
2022-09-27T11:57:56.848Z,12.49
2022-09-27T11:58:56.806Z,12.37
2022-09-27T11:59:56.736Z,12.28
2022-09-27T12:00:56.748Z,12.27
2022-09-27T12:01:56.765Z,12.27
2022-09-27T12:02:56.650Z,12.21
2022-09-27T12:03:56.527Z,12.22
2022-09-27T12:04:56.487Z,12.24
2022-09-27T12:05:58.397Z,12.29
2022-09-27T12:06:56.408Z,12.42
2022-09-27T12:07:56.310Z,12.43
2022-09-27T12:08:56.275Z,12.36
2022-09-27T12:09:56.204Z,12.37
2022-09-27T12:10:56.176Z,12.25
2022-09-27T12:11:57.089Z,12.28
2022-09-27T12:12:56.059Z,12.22
2022-09-27T12:13:56.009Z,12.15
2022-09-27T12:14:55.961Z,12.07
2022-09-27T12:15:55.940Z,12.04
2022-09-27T12:16:55.848Z,12.06
2022-09-27T12:17:55.822Z,11.91
2022-09-27T12:18:55.729Z,11.88
2022-09-27T12:19:55.685Z,11.73
2022-09-27T12:20:55.649Z,11.62
2022-09-27T12:21:55.593Z,11.60
2022-09-27T12:23:00.265Z,11.55
2022-09-27T12:23:55.480Z,11.59
2022-09-27T12:24:55.438Z,11.70
2022-09-27T12:25:55.378Z,11.68
2022-09-27T12:26:55.325Z,11.88
2022-09-27T12:27:55.299Z,12.17
2022-09-27T12:28:55.227Z,12.24
2022-09-27T12:29:55.165Z,12.55
2022-09-27T12:31:10.831Z,12.61
2022-09-27T12:31:55.068Z,12.65
2022-09-27T12:32:55.055Z,12.62
2022-09-27T12:33:54.951Z,12.72
2022-09-27T12:34:54.883Z,12.76
2022-09-27T12:35:54.856Z,12.73
2022-09-27T12:36:54.779Z,12.85
2022-09-27T12:37:54.746Z,12.72
2022-09-27T12:38:54.719Z,12.57
2022-09-27T12:39:54.620Z,12.54
2022-09-27T12:40:54.607Z,12.50
2022-09-27T12:41:54.531Z,12.53
2022-09-27T12:42:54.490Z,12.50
2022-09-27T12:43:54.411Z,12.64
2022-09-27T12:44:54.403Z,12.58
2022-09-27T12:45:54.319Z,12.57
2022-09-27T12:46:54.302Z,12.50
2022-09-27T12:47:54.198Z,12.43
2022-09-27T12:48:54.157Z,12.54
2022-09-27T12:49:57.576Z,12.35
2022-09-27T12:50:54.093Z,12.31
2022-09-27T12:51:54.009Z,12.25
2022-09-27T12:52:53.951Z,12.21
2022-09-27T12:53:53.878Z,12.20
2022-09-27T12:54:53.828Z,12.10
2022-09-27T12:55:53.788Z,12.09
2022-09-27T12:56:53.768Z,12.04
2022-09-27T12:57:53.676Z,11.97
2022-09-27T12:58:53.641Z,12.04